sensor_id;sensor_type;location;lat;lon;timestamp;temperature;humidity
21799;DHT22;24973;47.178;15.316;2023-03-01T00:01:29;1.00;99.90
21799;DHT22;24973;47.178;15.316;2023-03-01T00:04:18;1.00;99.90
21799;DHT22;24973;47.178;15.316;2023-03-01T00:07:07;1.00;99.90
21799;DHT22;24973;47.178;15.316;2023-03-01T00:09:55;1.00;99.90
21799;DHT22;24973;47.178;15.316;2023-03-01T00:12:44;1.00;99.90
21799;DHT22;24973;47.178;15.316;2023-03-01T00:15:38;0.90;99.90
21799;DHT22;24973;47.178;15.316;2023-03-01T00:18:28;1.10;99.90
21799;DHT22;24973;47.178;15.316;2023-03-01T00:21:17;0.90;99.90
21799;DHT22;24973;47.178;15.316;2023-03-01T00:24:06;0.90;99.90
21799;DHT22;24973;47.178;15.316;2023-03-01T00:26:55;1.00;99.90
21799;DHT22;24973;47.178;15.316;2023-03-01T00:29:44;1.00;99.90
21799;DHT22;24973;47.178;15.316;2023-03-01T00:32:34;0.90;99.90
21799;DHT22;24973;47.178;15.316;2023-03-01T00:35:23;1.00;99.90
21799;DHT22;24973;47.178;15.316;2023-03-01T00:38:12;1.00;99.90
21799;DHT22;24973;47.178;15.316;2023-03-01T00:41:03;1.10;99.90
21799;DHT22;24973;47.178;15.316;2023-03-01T00:43:53;1.00;99.90
21799;DHT22;24973;47.178;15.316;2023-03-01T00:46:42;1.00;99.90
21799;DHT22;24973;47.178;15.316;2023-03-01T00:49:32;1.00;99.90
21799;DHT22;24973;47.178;15.316;2023-03-01T00:52:21;1.10;99.90
21799;DHT22;24973;47.178;15.316;2023-03-01T00:55:10;1.10;99.90
21799;DHT22;24973;47.178;15.316;2023-03-01T00:57:59;1.10;99.90
21799;DHT22;24973;47.178;15.316;2023-03-01T01:00:48;1.00;99.90
21799;DHT22;24973;47.178;15.316;2023-03-01T01:03:37;1.00;99.90
21799;DHT22;24973;47.178;15.316;2023-03-01T01:06:29;1.00;99.90
21799;DHT22;24973;47.178;15.316;2023-03-01T01:09:18;1.00;99.90
21799;DHT22;24973;47.178;15.316;2023-03-01T01:12:08;1.00;99.90
21799;DHT22;24973;47.178;15.316;2023-03-01T01:14:56;1.00;99.90
21799;DHT22;24973;47.178;15.316;2023-03-01T01:17:45;1.00;99.90
21799;DHT22;24973;47.178;15.316;2023-03-01T01:20:35;1.00;99.90
21799;DHT22;24973;47.178;15.316;2023-03-01T01:23:26;1.00;99.90
21799;DHT22;24973;47.178;15.316;2023-03-01T01:26:16;1.00;99.90
21799;DHT22;24973;47.178;15.316;2023-03-01T01:29:07;0.90;99.90
21799;DHT22;24973;47.178;15.316;2023-03-01T01:31:56;0.90;99.90
21799;DHT22;24973;47.178;15.316;2023-03-01T01:34:44;0.90;99.90
21799;DHT22;24973;47.178;15.316;2023-03-01T01:37:33;0.90;99.90
21799;DHT22;24973;47.178;15.316;2023-03-01T01:40:23;1.00;99.90
21799;DHT22;24973;47.178;15.316;2023-03-01T01:43:21;1.00;99.90
21799;DHT22;24973;47.178;15.316;2023-03-01T01:46:19;1.00;99.90
21799;DHT22;24973;47.178;15.316;2023-03-01T01:49:29;1.00;99.90
21799;DHT22;24973;47.178;15.316;2023-03-01T01:52:24;1.00;99.90
21799;DHT22;24973;47.178;15.316;2023-03-01T01:55:17;0.90;99.90
21799;DHT22;24973;47.178;15.316;2023-03-01T01:58:11;0.90;99.90
21799;DHT22;24973;47.178;15.316;2023-03-01T02:01:03;0.80;99.90
21799;DHT22;24973;47.178;15.316;2023-03-01T02:03:53;0.80;99.90
21799;DHT22;24973;47.178;15.316;2023-03-01T02:06:45;0.80;99.90
21799;DHT22;24973;47.178;15.316;2023-03-01T02:09:38;0.80;99.90
21799;DHT22;24973;47.178;15.316;2023-03-01T02:12:26;0.90;99.90
21799;DHT22;24973;47.178;15.316;2023-03-01T02:15:17;0.90;99.90
21799;DHT22;24973;47.178;15.316;2023-03-01T02:18:07;0.90;99.90
21799;DHT22;24973;47.178;15.316;2023-03-01T02:21:08;0.90;99.90
21799;DHT22;24973;47.178;15.316;2023-03-01T02:24:07;0.90;99.90
21799;DHT22;24973;47.178;15.316;2023-03-01T02:27:06;1.00;99.90
21799;DHT22;24973;47.178;15.316;2023-03-01T02:29:57;1.00;99.90
21799;DHT22;24973;47.178;15.316;2023-03-01T02:32:46;0.90;99.90
21799;DHT22;24973;47.178;15.316;2023-03-01T02:35:37;0.90;99.90
21799;DHT22;24973;47.178;15.316;2023-03-01T02:38:26;0.90;99.90
21799;DHT22;24973;47.178;15.316;2023-03-01T02:41:17;0.90;99.90
21799;DHT22;24973;47.178;15.316;2023-03-01T02:44:07;0.90;99.90
21799;DHT22;24973;47.178;15.316;2023-03-01T02:47:01;0.90;99.90
21799;DHT22;24973;47.178;15.316;2023-03-01T02:49:51;0.90;99.90
21799;DHT22;24973;47.178;15.316;2023-03-01T02:52:46;0.80;99.90
21799;DHT22;24973;47.178;15.316;2023-03-01T02:55:36;0.80;99.90
21799;DHT22;24973;47.178;15.316;2023-03-01T02:58:25;0.80;99.90
21799;DHT22;24973;47.178;15.316;2023-03-01T03:01:14;0.90;99.90
21799;DHT22;24973;47.178;15.316;2023-03-01T03:04:06;0.90;99.90
21799;DHT22;24973;47.178;15.316;2023-03-01T03:06:56;0.90;99.90
21799;DHT22;24973;47.178;15.316;2023-03-01T03:09:45;0.90;99.90
21799;DHT22;24973;47.178;15.316;2023-03-01T03:12:34;0.90;99.90
21799;DHT22;24973;47.178;15.316;2023-03-01T03:15:23;0.90;99.90
21799;DHT22;24973;47.178;15.316;2023-03-01T03:18:15;1.00;99.90
21799;DHT22;24973;47.178;15.316;2023-03-01T03:21:09;1.00;99.90
21799;DHT22;24973;47.178;15.316;2023-03-01T03:23:59;1.10;99.90
21799;DHT22;24973;47.178;15.316;2023-03-01T03:26:48;1.10;99.90
21799;DHT22;24973;47.178;15.316;2023-03-01T03:29:37;1.10;99.90
21799;DHT22;24973;47.178;15.316;2023-03-01T03:32:26;1.10;99.90
21799;DHT22;24973;47.178;15.316;2023-03-01T03:35:14;1.10;99.90
21799;DHT22;24973;47.178;15.316;2023-03-01T03:38:08;1.20;99.90
21799;DHT22;24973;47.178;15.316;2023-03-01T03:41:04;1.10;99.90
21799;DHT22;24973;47.178;15.316;2023-03-01T03:43:54;1.10;99.90
21799;DHT22;24973;47.178;15.316;2023-03-01T03:46:43;1.10;99.90
21799;DHT22;24973;47.178;15.316;2023-03-01T03:49:31;1.20;99.90
21799;DHT22;24973;47.178;15.316;2023-03-01T03:52:21;1.20;99.90
21799;DHT22;24973;47.178;15.316;2023-03-01T03:55:12;1.20;99.90
21799;DHT22;24973;47.178;15.316;2023-03-01T03:58:02;1.10;99.90
21799;DHT22;24973;47.178;15.316;2023-03-01T04:00:55;1.10;99.90
21799;DHT22;24973;47.178;15.316;2023-03-01T04:03:44;1.10;99.90
21799;DHT22;24973;47.178;15.316;2023-03-01T04:06:34;1.00;99.90
21799;DHT22;24973;47.178;15.316;2023-03-01T04:09:23;1.00;99.90
21799;DHT22;24973;47.178;15.316;2023-03-01T04:12:13;1.00;99.90
21799;DHT22;24973;47.178;15.316;2023-03-01T04:15:07;1.00;99.90
21799;DHT22;24973;47.178;15.316;2023-03-01T04:18:00;1.00;99.90
21799;DHT22;24973;47.178;15.316;2023-03-01T04:20:50;1.00;99.90
21799;DHT22;24973;47.178;15.316;2023-03-01T04:23:42;1.00;99.90
21799;DHT22;24973;47.178;15.316;2023-03-01T04:26:31;1.00;99.90
21799;DHT22;24973;47.178;15.316;2023-03-01T04:29:21;0.90;99.90
21799;DHT22;24973;47.178;15.316;2023-03-01T04:32:09;0.90;99.90
21799;DHT22;24973;47.178;15.316;2023-03-01T04:35:00;0.80;99.90
21799;DHT22;24973;47.178;15.316;2023-03-01T04:37:49;0.90;99.90
21799;DHT22;24973;47.178;15.316;2023-03-01T04:40:38;0.90;99.90
21799;DHT22;24973;47.178;15.316;2023-03-01T04:43:29;0.90;99.90
21799;DHT22;24973;47.178;15.316;2023-03-01T04:46:20;0.80;99.90
21799;DHT22;24973;47.178;15.316;2023-03-01T04:49:09;0.90;99.90
21799;DHT22;24973;47.178;15.316;2023-03-01T04:51:58;0.90;99.90
21799;DHT22;24973;47.178;15.316;2023-03-01T04:54:49;0.90;99.90
21799;DHT22;24973;47.178;15.316;2023-03-01T04:57:37;0.80;99.90
21799;DHT22;24973;47.178;15.316;2023-03-01T05:00:26;0.80;99.90
21799;DHT22;24973;47.178;15.316;2023-03-01T05:03:16;0.70;99.90
21799;DHT22;24973;47.178;15.316;2023-03-01T05:06:06;0.70;99.90
21799;DHT22;24973;47.178;15.316;2023-03-01T05:08:54;0.70;99.90
21799;DHT22;24973;47.178;15.316;2023-03-01T05:11:43;0.80;99.90
21799;DHT22;24973;47.178;15.316;2023-03-01T05:14:32;0.80;99.90
21799;DHT22;24973;47.178;15.316;2023-03-01T05:17:20;0.80;99.90
21799;DHT22;24973;47.178;15.316;2023-03-01T05:20:11;0.80;99.90
21799;DHT22;24973;47.178;15.316;2023-03-01T05:23:00;0.90;99.90
21799;DHT22;24973;47.178;15.316;2023-03-01T05:25:52;0.90;99.90
21799;DHT22;24973;47.178;15.316;2023-03-01T05:28:41;0.90;99.90
21799;DHT22;24973;47.178;15.316;2023-03-01T05:31:30;0.90;99.90
21799;DHT22;24973;47.178;15.316;2023-03-01T05:34:22;0.90;99.90
21799;DHT22;24973;47.178;15.316;2023-03-01T05:37:14;0.90;99.90
21799;DHT22;24973;47.178;15.316;2023-03-01T05:40:03;0.80;99.90
21799;DHT22;24973;47.178;15.316;2023-03-01T05:42:54;0.80;99.90
21799;DHT22;24973;47.178;15.316;2023-03-01T05:45:44;0.80;99.90
21799;DHT22;24973;47.178;15.316;2023-03-01T05:48:33;0.70;99.90
21799;DHT22;24973;47.178;15.316;2023-03-01T05:51:22;0.70;99.90
21799;DHT22;24973;47.178;15.316;2023-03-01T05:54:12;0.60;99.90
21799;DHT22;24973;47.178;15.316;2023-03-01T05:57:01;0.70;99.90
21799;DHT22;24973;47.178;15.316;2023-03-01T05:59:49;0.70;99.90
21799;DHT22;24973;47.178;15.316;2023-03-01T06:02:38;0.70;99.90
21799;DHT22;24973;47.178;15.316;2023-03-01T06:05:27;0.70;99.90
21799;DHT22;24973;47.178;15.316;2023-03-01T06:08:17;0.80;99.90
21799;DHT22;24973;47.178;15.316;2023-03-01T06:11:08;0.80;99.90
21799;DHT22;24973;47.178;15.316;2023-03-01T06:13:57;0.80;99.90
21799;DHT22;24973;47.178;15.316;2023-03-01T06:16:45;0.90;99.90
21799;DHT22;24973;47.178;15.316;2023-03-01T06:19:34;0.90;99.90
21799;DHT22;24973;47.178;15.316;2023-03-01T06:22:24;0.90;99.90
21799;DHT22;24973;47.178;15.316;2023-03-01T06:25:14;1.00;99.90
21799;DHT22;24973;47.178;15.316;2023-03-01T06:28:05;1.10;99.90
21799;DHT22;24973;47.178;15.316;2023-03-01T06:30:54;1.10;99.90
21799;DHT22;24973;47.178;15.316;2023-03-01T06:33:43;1.10;99.90
21799;DHT22;24973;47.178;15.316;2023-03-01T06:36:32;1.20;99.90
21799;DHT22;24973;47.178;15.316;2023-03-01T06:39:21;1.30;99.90
21799;DHT22;24973;47.178;15.316;2023-03-01T06:42:10;1.20;99.90
21799;DHT22;24973;47.178;15.316;2023-03-01T06:45:00;1.20;99.90
21799;DHT22;24973;47.178;15.316;2023-03-01T06:47:49;1.20;99.90
21799;DHT22;24973;47.178;15.316;2023-03-01T06:50:37;1.20;99.90
21799;DHT22;24973;47.178;15.316;2023-03-01T06:53:26;1.20;99.90
21799;DHT22;24973;47.178;15.316;2023-03-01T06:56:15;1.20;99.90
21799;DHT22;24973;47.178;15.316;2023-03-01T06:59:04;1.10;99.90
21799;DHT22;24973;47.178;15.316;2023-03-01T07:01:54;1.10;99.90
21799;DHT22;24973;47.178;15.316;2023-03-01T07:04:43;1.10;99.90
21799;DHT22;24973;47.178;15.316;2023-03-01T07:07:32;1.20;99.90
21799;DHT22;24973;47.178;15.316;2023-03-01T07:10:20;1.20;99.90
21799;DHT22;24973;47.178;15.316;2023-03-01T07:13:09;1.20;99.90
21799;DHT22;24973;47.178;15.316;2023-03-01T07:15:58;1.30;99.90
21799;DHT22;24973;47.178;15.316;2023-03-01T07:18:48;1.30;99.90
21799;DHT22;24973;47.178;15.316;2023-03-01T07:21:37;1.30;99.90
21799;DHT22;24973;47.178;15.316;2023-03-01T07:24:25;1.30;99.90
21799;DHT22;24973;47.178;15.316;2023-03-01T07:27:14;1.40;99.90
21799;DHT22;24973;47.178;15.316;2023-03-01T07:30:04;1.50;99.90
21799;DHT22;24973;47.178;15.316;2023-03-01T07:32:53;1.50;99.90
21799;DHT22;24973;47.178;15.316;2023-03-01T07:35:44;1.70;99.90
21799;DHT22;24973;47.178;15.316;2023-03-01T07:38:32;1.70;99.90
21799;DHT22;24973;47.178;15.316;2023-03-01T07:41:21;1.70;99.90
21799;DHT22;24973;47.178;15.316;2023-03-01T07:44:10;1.80;99.90
21799;DHT22;24973;47.178;15.316;2023-03-01T07:46:59;1.90;99.90
21799;DHT22;24973;47.178;15.316;2023-03-01T07:49:47;1.80;99.90
21799;DHT22;24973;47.178;15.316;2023-03-01T07:52:37;1.90;99.90
21799;DHT22;24973;47.178;15.316;2023-03-01T07:55:26;1.90;99.90
21799;DHT22;24973;47.178;15.316;2023-03-01T07:58:14;2.00;99.90
21799;DHT22;24973;47.178;15.316;2023-03-01T08:01:04;2.00;99.90
21799;DHT22;24973;47.178;15.316;2023-03-01T08:03:54;2.10;99.90
21799;DHT22;24973;47.178;15.316;2023-03-01T08:06:43;2.20;99.90
21799;DHT22;24973;47.178;15.316;2023-03-01T08:09:34;2.30;99.90
21799;DHT22;24973;47.178;15.316;2023-03-01T08:12:23;2.30;99.90
21799;DHT22;24973;47.178;15.316;2023-03-01T08:15:14;2.30;99.90
21799;DHT22;24973;47.178;15.316;2023-03-01T08:18:04;2.40;99.90
21799;DHT22;24973;47.178;15.316;2023-03-01T08:20:53;2.50;99.90
21799;DHT22;24973;47.178;15.316;2023-03-01T08:23:43;2.50;99.90
21799;DHT22;24973;47.178;15.316;2023-03-01T08:26:33;2.60;99.90
21799;DHT22;24973;47.178;15.316;2023-03-01T08:29:22;2.60;99.90
21799;DHT22;24973;47.178;15.316;2023-03-01T08:32:12;2.70;99.90
21799;DHT22;24973;47.178;15.316;2023-03-01T08:35:01;2.70;99.90
21799;DHT22;24973;47.178;15.316;2023-03-01T08:37:49;2.80;99.90
21799;DHT22;24973;47.178;15.316;2023-03-01T08:40:38;2.90;99.90
21799;DHT22;24973;47.178;15.316;2023-03-01T08:43:28;3.00;99.90
21799;DHT22;24973;47.178;15.316;2023-03-01T08:46:17;3.00;99.90
21799;DHT22;24973;47.178;15.316;2023-03-01T08:49:06;3.10;99.90
21799;DHT22;24973;47.178;15.316;2023-03-01T08:51:55;3.20;99.90
21799;DHT22;24973;47.178;15.316;2023-03-01T08:54:44;3.20;99.90
21799;DHT22;24973;47.178;15.316;2023-03-01T08:57:33;3.30;99.90
21799;DHT22;24973;47.178;15.316;2023-03-01T09:00:23;3.40;99.90
21799;DHT22;24973;47.178;15.316;2023-03-01T09:03:12;3.50;99.90
21799;DHT22;24973;47.178;15.316;2023-03-01T09:06:02;3.50;99.90
21799;DHT22;24973;47.178;15.316;2023-03-01T09:08:51;3.50;99.90
21799;DHT22;24973;47.178;15.316;2023-03-01T09:11:40;3.70;99.90
21799;DHT22;24973;47.178;15.316;2023-03-01T09:14:29;3.70;99.90
21799;DHT22;24973;47.178;15.316;2023-03-01T09:17:19;3.60;99.90
21799;DHT22;24973;47.178;15.316;2023-03-01T09:20:10;3.70;99.90
21799;DHT22;24973;47.178;15.316;2023-03-01T09:22:59;3.80;99.90
21799;DHT22;24973;47.178;15.316;2023-03-01T09:25:47;3.90;99.90
21799;DHT22;24973;47.178;15.316;2023-03-01T09:28:37;4.00;99.90
21799;DHT22;24973;47.178;15.316;2023-03-01T09:31:25;4.10;99.90
21799;DHT22;24973;47.178;15.316;2023-03-01T09:34:16;5.10;99.90
21799;DHT22;24973;47.178;15.316;2023-03-01T09:37:10;4.20;99.90
21799;DHT22;24973;47.178;15.316;2023-03-01T09:39:59;4.20;99.90
21799;DHT22;24973;47.178;15.316;2023-03-01T09:42:51;4.30;99.90
21799;DHT22;24973;47.178;15.316;2023-03-01T09:45:44;4.30;99.90
21799;DHT22;24973;47.178;15.316;2023-03-01T09:48:41;4.40;99.90
21799;DHT22;24973;47.178;15.316;2023-03-01T09:51:34;4.40;99.90
21799;DHT22;24973;47.178;15.316;2023-03-01T09:54:23;4.40;99.90
21799;DHT22;24973;47.178;15.316;2023-03-01T09:57:18;4.40;99.90
21799;DHT22;24973;47.178;15.316;2023-03-01T10:00:16;4.30;99.90
21799;DHT22;24973;47.178;15.316;2023-03-01T10:03:16;4.30;99.90
21799;DHT22;24973;47.178;15.316;2023-03-01T10:06:14;4.30;99.90
21799;DHT22;24973;47.178;15.316;2023-03-01T10:09:21;4.30;99.90
21799;DHT22;24973;47.178;15.316;2023-03-01T10:12:12;4.40;99.90
21799;DHT22;24973;47.178;15.316;2023-03-01T10:15:06;4.40;99.90
21799;DHT22;24973;47.178;15.316;2023-03-01T10:18:02;4.30;99.90
21799;DHT22;24973;47.178;15.316;2023-03-01T10:20:58;4.30;99.90
21799;DHT22;24973;47.178;15.316;2023-03-01T10:23:50;4.20;99.90
21799;DHT22;24973;47.178;15.316;2023-03-01T10:26:47;4.20;99.90
21799;DHT22;24973;47.178;15.316;2023-03-01T10:29:47;4.20;99.90
21799;DHT22;24973;47.178;15.316;2023-03-01T10:32:38;4.20;99.90
21799;DHT22;24973;47.178;15.316;2023-03-01T10:35:28;4.10;99.90
21799;DHT22;24973;47.178;15.316;2023-03-01T10:38:19;4.10;99.90
21799;DHT22;24973;47.178;15.316;2023-03-01T10:41:08;4.00;99.90
21799;DHT22;24973;47.178;15.316;2023-03-01T10:43:59;4.00;99.90
21799;DHT22;24973;47.178;15.316;2023-03-01T10:46:59;4.00;99.90
21799;DHT22;24973;47.178;15.316;2023-03-01T10:49:57;4.00;99.90
21799;DHT22;24973;47.178;15.316;2023-03-01T10:52:57;4.10;99.90
21799;DHT22;24973;47.178;15.316;2023-03-01T10:55:56;4.00;99.90
21799;DHT22;24973;47.178;15.316;2023-03-01T10:59:00;3.90;99.90
21799;DHT22;24973;47.178;15.316;2023-03-01T11:02:14;4.00;99.90
21799;DHT22;24973;47.178;15.316;2023-03-01T11:05:19;4.00;99.90
21799;DHT22;24973;47.178;15.316;2023-03-01T11:08:10;4.10;99.90
21799;DHT22;24973;47.178;15.316;2023-03-01T11:11:13;4.10;99.90
21799;DHT22;24973;47.178;15.316;2023-03-01T11:14:12;4.20;99.90
21799;DHT22;24973;47.178;15.316;2023-03-01T11:17:17;4.30;99.90
21799;DHT22;24973;47.178;15.316;2023-03-01T11:20:27;4.10;99.90
21799;DHT22;24973;47.178;15.316;2023-03-01T11:23:18;4.00;99.90
21799;DHT22;24973;47.178;15.316;2023-03-01T11:26:09;3.90;99.90
21799;DHT22;24973;47.178;15.316;2023-03-01T11:29:03;4.00;99.90
21799;DHT22;24973;47.178;15.316;2023-03-01T11:31:57;4.00;99.90
21799;DHT22;24973;47.178;15.316;2023-03-01T11:34:54;4.10;99.90
21799;DHT22;24973;47.178;15.316;2023-03-01T11:37:55;4.20;99.90
21799;DHT22;24973;47.178;15.316;2023-03-01T11:40:54;4.20;99.90
21799;DHT22;24973;47.178;15.316;2023-03-01T11:43:50;4.30;99.90
21799;DHT22;24973;47.178;15.316;2023-03-01T11:47:08;4.30;99.90
21799;DHT22;24973;47.178;15.316;2023-03-01T11:50:15;4.30;99.90
21799;DHT22;24973;47.178;15.316;2023-03-01T11:53:31;4.40;99.90
21799;DHT22;24973;47.178;15.316;2023-03-01T11:56:32;4.50;99.90
21799;DHT22;24973;47.178;15.316;2023-03-01T11:59:48;4.60;99.90
21799;DHT22;24973;47.178;15.316;2023-03-01T12:03:30;4.80;99.90
21799;DHT22;24973;47.178;15.316;2023-03-01T12:09:52;5.10;99.90
21799;DHT22;24973;47.178;15.316;2023-03-01T12:13:20;5.20;99.90
21799;DHT22;24973;47.178;15.316;2023-03-01T12:16:27;5.20;99.90
21799;DHT22;24973;47.178;15.316;2023-03-01T12:19:46;5.30;99.90
21799;DHT22;24973;47.178;15.316;2023-03-01T12:22:59;5.40;99.90
21799;DHT22;24973;47.178;15.316;2023-03-01T12:26:11;5.60;99.90
21799;DHT22;24973;47.178;15.316;2023-03-01T12:29:17;5.70;99.90
21799;DHT22;24973;47.178;15.316;2023-03-01T12:32:28;5.70;99.90
21799;DHT22;24973;47.178;15.316;2023-03-01T12:35:39;5.80;99.90
21799;DHT22;24973;47.178;15.316;2023-03-01T12:38:41;5.90;99.90
21799;DHT22;24973;47.178;15.316;2023-03-01T12:41:43;6.10;99.90
21799;DHT22;24973;47.178;15.316;2023-03-01T12:44:47;6.40;99.90
21799;DHT22;24973;47.178;15.316;2023-03-01T12:47:59;6.50;99.90
21799;DHT22;24973;47.178;15.316;2023-03-01T12:51:02;6.60;99.90
21799;DHT22;24973;47.178;15.316;2023-03-01T12:53:54;6.60;99.90
21799;DHT22;24973;47.178;15.316;2023-03-01T12:56:45;6.70;99.90
21799;DHT22;24973;47.178;15.316;2023-03-01T12:59:42;6.70;99.90
21799;DHT22;24973;47.178;15.316;2023-03-01T13:02:38;6.70;99.90
21799;DHT22;24973;47.178;15.316;2023-03-01T13:05:39;6.70;99.90
21799;DHT22;24973;47.178;15.316;2023-03-01T13:08:38;6.70;99.90
21799;DHT22;24973;47.178;15.316;2023-03-01T13:11:30;6.70;99.90
21799;DHT22;24973;47.178;15.316;2023-03-01T13:14:37;6.70;99.90
21799;DHT22;24973;47.178;15.316;2023-03-01T13:17:41;6.70;99.90
21799;DHT22;24973;47.178;15.316;2023-03-01T13:20:34;6.60;99.90
21799;DHT22;24973;47.178;15.316;2023-03-01T13:23:37;6.50;99.90
21799;DHT22;24973;47.178;15.316;2023-03-01T13:26:27;6.50;99.90
21799;DHT22;24973;47.178;15.316;2023-03-01T13:29:26;6.50;99.90
21799;DHT22;24973;47.178;15.316;2023-03-01T13:32:22;6.60;99.90
21799;DHT22;24973;47.178;15.316;2023-03-01T13:35:41;6.70;99.90
21799;DHT22;24973;47.178;15.316;2023-03-01T13:38:46;6.80;99.90
21799;DHT22;24973;47.178;15.316;2023-03-01T13:41:52;6.90;99.90
21799;DHT22;24973;47.178;15.316;2023-03-01T13:44:43;6.90;99.90
21799;DHT22;24973;47.178;15.316;2023-03-01T13:47:34;6.90;99.90
21799;DHT22;24973;47.178;15.316;2023-03-01T13:50:25;6.90;99.90
21799;DHT22;24973;47.178;15.316;2023-03-01T13:53:18;6.90;99.90
21799;DHT22;24973;47.178;15.316;2023-03-01T13:56:12;6.90;99.90
21799;DHT22;24973;47.178;15.316;2023-03-01T13:59:05;6.90;99.90
21799;DHT22;24973;47.178;15.316;2023-03-01T14:02:01;6.80;99.90
21799;DHT22;24973;47.178;15.316;2023-03-01T14:04:56;6.70;99.90
21799;DHT22;24973;47.178;15.316;2023-03-01T14:07:51;6.70;99.90
21799;DHT22;24973;47.178;15.316;2023-03-01T14:10:44;6.60;99.90
21799;DHT22;24973;47.178;15.316;2023-03-01T14:14:02;6.60;99.90
21799;DHT22;24973;47.178;15.316;2023-03-01T14:17:15;6.60;99.90
21799;DHT22;24973;47.178;15.316;2023-03-01T14:20:19;6.60;99.90
21799;DHT22;24973;47.178;15.316;2023-03-01T14:23:11;6.50;99.90
21799;DHT22;24973;47.178;15.316;2023-03-01T14:26:01;6.50;99.90
21799;DHT22;24973;47.178;15.316;2023-03-01T14:28:52;6.50;99.90
21799;DHT22;24973;47.178;15.316;2023-03-01T14:31:42;6.50;99.90
21799;DHT22;24973;47.178;15.316;2023-03-01T14:34:43;6.40;99.90
21799;DHT22;24973;47.178;15.316;2023-03-01T14:37:34;6.40;99.90
21799;DHT22;24973;47.178;15.316;2023-03-01T14:40:25;6.50;99.90
21799;DHT22;24973;47.178;15.316;2023-03-01T14:43:20;6.50;99.90
21799;DHT22;24973;47.178;15.316;2023-03-01T14:46:19;6.50;99.90
21799;DHT22;24973;47.178;15.316;2023-03-01T14:49:12;6.60;99.90
21799;DHT22;24973;47.178;15.316;2023-03-01T14:52:04;6.50;99.90
21799;DHT22;24973;47.178;15.316;2023-03-01T14:54:55;6.50;99.90
21799;DHT22;24973;47.178;15.316;2023-03-01T14:57:47;6.60;99.90
21799;DHT22;24973;47.178;15.316;2023-03-01T15:00:37;6.60;99.90
21799;DHT22;24973;47.178;15.316;2023-03-01T15:03:32;6.60;99.90
21799;DHT22;24973;47.178;15.316;2023-03-01T15:06:24;6.60;99.90
21799;DHT22;24973;47.178;15.316;2023-03-01T15:09:14;6.60;99.90
21799;DHT22;24973;47.178;15.316;2023-03-01T15:12:38;6.60;99.90
21799;DHT22;24973;47.178;15.316;2023-03-01T15:15:36;6.60;99.90
21799;DHT22;24973;47.178;15.316;2023-03-01T15:18:29;6.50;99.90
21799;DHT22;24973;47.178;15.316;2023-03-01T15:21:20;6.50;99.90
21799;DHT22;24973;47.178;15.316;2023-03-01T15:24:17;6.40;99.90
21799;DHT22;24973;47.178;15.316;2023-03-01T15:27:14;6.40;99.90
21799;DHT22;24973;47.178;15.316;2023-03-01T15:30:06;6.30;99.90
21799;DHT22;24973;47.178;15.316;2023-03-01T15:33:25;6.30;99.90
21799;DHT22;24973;47.178;15.316;2023-03-01T15:36:35;6.30;99.90
21799;DHT22;24973;47.178;15.316;2023-03-01T15:39:32;6.30;99.90
21799;DHT22;24973;47.178;15.316;2023-03-01T15:42:37;6.30;99.90
21799;DHT22;24973;47.178;15.316;2023-03-01T15:45:28;6.20;99.90
21799;DHT22;24973;47.178;15.316;2023-03-01T15:48:18;6.10;99.90
21799;DHT22;24973;47.178;15.316;2023-03-01T15:51:12;6.10;99.90
21799;DHT22;24973;47.178;15.316;2023-03-01T15:54:05;6.00;99.90
21799;DHT22;24973;47.178;15.316;2023-03-01T15:56:59;5.90;99.90
21799;DHT22;24973;47.178;15.316;2023-03-01T15:59:48;5.80;99.90
21799;DHT22;24973;47.178;15.316;2023-03-01T16:02:37;5.80;99.90
21799;DHT22;24973;47.178;15.316;2023-03-01T16:05:28;5.70;99.90
21799;DHT22;24973;47.178;15.316;2023-03-01T16:08:20;5.60;99.90
21799;DHT22;24973;47.178;15.316;2023-03-01T16:11:14;5.60;99.90
21799;DHT22;24973;47.178;15.316;2023-03-01T16:14:04;5.50;99.90
21799;DHT22;24973;47.178;15.316;2023-03-01T16:16:53;5.50;99.90
21799;DHT22;24973;47.178;15.316;2023-03-01T16:19:42;5.40;99.90
21799;DHT22;24973;47.178;15.316;2023-03-01T16:22:31;5.40;99.90
21799;DHT22;24973;47.178;15.316;2023-03-01T16:25:21;5.40;99.90
21799;DHT22;24973;47.178;15.316;2023-03-01T16:28:10;5.40;99.90
21799;DHT22;24973;47.178;15.316;2023-03-01T16:30:58;5.40;99.90
21799;DHT22;24973;47.178;15.316;2023-03-01T16:33:48;5.40;99.90
21799;DHT22;24973;47.178;15.316;2023-03-01T16:36:38;5.40;99.90
21799;DHT22;24973;47.178;15.316;2023-03-01T16:39:28;5.40;99.90
21799;DHT22;24973;47.178;15.316;2023-03-01T16:42:18;5.30;99.90
21799;DHT22;24973;47.178;15.316;2023-03-01T16:45:08;5.30;99.90
21799;DHT22;24973;47.178;15.316;2023-03-01T16:48:09;5.30;99.90
21799;DHT22;24973;47.178;15.316;2023-03-01T16:50:59;5.30;99.90
21799;DHT22;24973;47.178;15.316;2023-03-01T16:53:49;5.20;99.90
21799;DHT22;24973;47.178;15.316;2023-03-01T16:56:38;5.20;99.90
21799;DHT22;24973;47.178;15.316;2023-03-01T16:59:28;5.20;99.90
21799;DHT22;24973;47.178;15.316;2023-03-01T17:02:17;5.20;99.90
21799;DHT22;24973;47.178;15.316;2023-03-01T17:05:07;5.10;99.90
21799;DHT22;24973;47.178;15.316;2023-03-01T17:07:58;5.00;99.90
21799;DHT22;24973;47.178;15.316;2023-03-01T17:10:46;5.00;99.90
21799;DHT22;24973;47.178;15.316;2023-03-01T17:13:35;4.90;99.90
21799;DHT22;24973;47.178;15.316;2023-03-01T17:16:26;4.80;99.90
21799;DHT22;24973;47.178;15.316;2023-03-01T17:19:15;4.80;99.90
21799;DHT22;24973;47.178;15.316;2023-03-01T17:22:04;4.80;99.90
21799;DHT22;24973;47.178;15.316;2023-03-01T17:24:53;4.80;99.90
21799;DHT22;24973;47.178;15.316;2023-03-01T17:27:42;5.40;99.90
21799;DHT22;24973;47.178;15.316;2023-03-01T17:30:30;4.80;99.90
21799;DHT22;24973;47.178;15.316;2023-03-01T17:33:21;4.80;99.90
21799;DHT22;24973;47.178;15.316;2023-03-01T17:36:09;4.80;99.90
21799;DHT22;24973;47.178;15.316;2023-03-01T17:38:58;4.80;99.90
21799;DHT22;24973;47.178;15.316;2023-03-01T17:41:47;4.80;99.90
21799;DHT22;24973;47.178;15.316;2023-03-01T17:44:35;4.80;99.90
21799;DHT22;24973;47.178;15.316;2023-03-01T17:47:24;4.80;99.90
21799;DHT22;24973;47.178;15.316;2023-03-01T17:50:15;4.70;99.90
21799;DHT22;24973;47.178;15.316;2023-03-01T17:53:04;4.70;99.90
21799;DHT22;24973;47.178;15.316;2023-03-01T17:55:59;4.70;99.90
21799;DHT22;24973;47.178;15.316;2023-03-01T17:58:49;4.60;99.90
21799;DHT22;24973;47.178;15.316;2023-03-01T18:01:40;4.60;99.90
21799;DHT22;24973;47.178;15.316;2023-03-01T18:04:29;3.30;99.90
21799;DHT22;24973;47.178;15.316;2023-03-01T18:07:20;4.50;99.90
21799;DHT22;24973;47.178;15.316;2023-03-01T18:10:10;4.50;99.90
21799;DHT22;24973;47.178;15.316;2023-03-01T18:12:59;4.40;99.90
21799;DHT22;24973;47.178;15.316;2023-03-01T18:15:49;4.40;99.90